CheckWX is a tool to help pilots better visualize weather data.  It is not intended as a substitute for an official pre-flight weather briefing.

01:04:20 UTC

ENDU METAR
Bardufoss Airport
Målselv, Norway
Current

14 mins ago

ENDU 190050Z AUTO VRB01KT 9999 FEW032/// SCT041/// M01/M02 Q1030 RMK WIND 1100FT 22007KT WIND 2200FT 25009KT
Observed
Apr-19 @ 00:50 UTC
Wind
  • Variable at 1 KTS
Visibility
10,000+ meters
Flight Rules
VFR
Cloud Levels
  • Few at 3,200' AGL
  • Scattered at 4,100' AGL
Temperature
-1°C / 30°F
Dewpoint
-2°C / 28°F
Humidity
93%
Altimeter
30.41" Hg
Pressure
1029.91 hPa
Previous

44 mins ago

ENDU 190020Z AUTO 00000KT 9999 NCD M01/M01 Q1030 RMK WIND 1100FT 21007KT WIND 2200FT 26011KT
Observed
Apr-19 @ 00:20 UTC
Visibility
10,000+ meters
Flight Rules
VFR
Cloud Levels
  • Clear skies
Temperature
-1°C / 30°F
Dewpoint
-1°C / 30°F
Humidity
100%
Altimeter
30.41" Hg
Pressure
1029.91 hPa
Previous

1 hour ago

ENDU 182350Z AUTO 00000KT 9999 SCT043/// 00/M01 Q1030 RMK WIND 1100FT 24004KT WIND 2200FT 26010KT
Observed
Apr-18 @ 23:50 UTC
Visibility
10,000+ meters
Flight Rules
VFR
Cloud Levels
  • Scattered at 4,300' AGL
Temperature
C / 32°F
Dewpoint
-1°C / 30°F
Humidity
93%
Altimeter
30.41" Hg
Pressure
1029.91 hPa